Time,TemperatureF,DewpointF,PressureIn,WindDirection,WindDirectionDegrees,WindSpeedMPH,WindSpeedGustMPH,Humidity,HourlyPrecipIn,Conditions,Clouds,dailyrainin,SoftwareType,DateUTC
2013-03-03 00:00:00,42.1,28.8,29.91,WNW,301,0.0,5.0,59,0.00,,---,0.00,VWS V14.01,2013-03-03 05:00:00,
2013-03-03 00:01:00,42.1,28.8,29.91,SSE,148,0.0,5.0,59,0.00,,---,0.00,VWS V14.01,2013-03-03 05:01:00,
2013-03-03 00:06:00,41.9,28.6,29.92,NW,304,0.0,0.0,59,0.00,,---,0.00,VWS V14.01,2013-03-03 05:06:00,
2013-03-03 00:11:00,41.8,28.5,29.92,NNE,20,0.0,0.0,59,0.00,,---,0.00,VWS V14.01,2013-03-03 05:11:00,
2013-03-03 00:16:00,41.6,28.8,29.92,NW,315,0.0,3.0,60,0.00,,---,0.00,VWS V14.01,2013-03-03 05:16:00,
2013-03-03 00:21:00,41.8,28.5,29.92,WNW,285,0.0,3.0,59,0.00,,---,0.00,VWS V14.01,2013-03-03 05:21:00,
2013-03-03 00:26:00,41.6,28.4,29.92,WNW,287,0.0,3.0,59,0.00,,---,0.00,VWS V14.01,2013-03-03 05:26:00,
2013-03-03 00:30:00,41.3,28.1,29.92,NE,42,0.0,0.0,59,0.00,,---,0.00,VWS V14.01,2013-03-03 05:30:00,
2013-03-03 00:31:00,41.6,28.4,29.92,NW,311,0.0,3.0,59,0.00,,---,0.00,VWS V14.01,2013-03-03 05:31:00,
2013-03-03 00:36:00,41.9,28.2,29.92,WNW,288,0.0,5.0,58,0.00,,---,0.00,VWS V14.01,2013-03-03 05:36:00,
2013-03-03 00:41:00,41.9,28.2,29.92,NNE,25,1.0,5.0,58,0.00,,---,0.00,VWS V14.01,2013-03-03 05:41:00,
2013-03-03 00:47:00,42.1,28.0,29.92,NNE,18,0.0,5.0,57,0.00,,---,0.00,VWS V14.01,2013-03-03 05:47:00,
2013-03-03 00:52:00,42.1,27.5,29.91,WNW,295,0.0,6.0,56,0.00,,---,0.00,VWS V14.01,2013-03-03 05:52:00,
2013-03-03 00:57:00,42.1,27.5,29.91,NNE,25,0.0,6.0,56,0.00,,---,0.00,VWS V14.01,2013-03-03 05:57:00,
2013-03-03 01:00:00,40.8,28.4,29.91,SSE,155,0.0,5.0,61,0.00,,---,0.00,VWS V14.01,2013-03-03 06:00:00,
2013-03-03 01:02:00,42.1,28.0,29.91,West,267,0.0,6.0,57,0.00,,---,0.00,VWS V14.01,2013-03-03 06:02:00,
2013-03-03 01:07:00,41.9,27.8,29.92,North,6,0.0,0.0,57,0.00,,---,0.00,VWS V14.01,2013-03-03 06:07:00,
2013-03-03 01:12:00,41.8,27.7,29.92,WNW,301,0.0,0.0,57,0.00,,---,0.00,VWS V14.01,2013-03-03 06:12:00,
2013-03-03 01:17:00,41.6,27.5,29.92,NNW,328,0.0,0.0,57,0.00,,---,0.00,VWS V14.01,2013-03-03 06:17:00,
2013-03-03 01:22:00,41.6,27.9,29.92,NNW,347,0.0,0.0,58,0.00,,---,0.00,VWS V14.01,2013-03-03 06:22:00,
2013-03-03 01:27:00,41.5,27.8,29.92,NNW,347,0.0,0.0,58,0.00,,---,0.00,VWS V14.01,2013-03-03 06:27:00,
2013-03-03 01:30:00,40.1,29.7,29.91,West,265,0.0,0.0,66,0.00,,---,0.00,VWS V14.01,2013-03-03 06:30:00,
2013-03-03 01:32:00,41.3,28.1,29.92,North,349,0.0,0.0,59,0.00,,---,0.00,VWS V14.01,2013-03-03 06:32:00,
2013-03-03 01:37:00,41.3,28.1,29.92,WNW,301,0.0,0.0,59,0.00,,---,0.00,VWS V14.01,2013-03-03 06:37:00,
2013-03-03 01:42:00,41.3,28.1,29.92,WNW,285,0.0,5.0,59,0.00,,---,0.00,VWS V14.01,2013-03-03 06:42:00,
2013-03-03 01:47:00,41.2,28.0,29.92,NNE,18,0.0,5.0,59,0.00,,---,0.00,VWS V14.01,2013-03-03 06:47:00,
2013-03-03 01:52:00,41.2,28.0,29.91,SSE,148,0.0,5.0,59,0.00,,---,0.00,VWS V14.01,2013-03-03 06:52:00,
2013-03-03 01:57:00,41.2,28.4,29.91,SE,140,0.0,5.0,60,0.00,,---,0.00,VWS V14.01,2013-03-03 06:57:00,
2013-03-03 02:00:00,39.5,30.5,29.90,West,267,0.0,0.0,70,0.00,,---,0.00,VWS V14.01,2013-03-03 07:00:00,
2013-03-03 02:02:00,40.9,28.5,29.91,SSE,155,0.0,5.0,61,0.00,,---,0.00,VWS V14.01,2013-03-03 07:02:00,
2013-03-03 02:07:00,40.8,28.8,29.91,SSE,155,0.0,0.0,62,0.00,,---,0.00,VWS V14.01,2013-03-03 07:07:00,
2013-03-03 02:12:00,40.6,28.6,29.91,West,265,0.0,0.0,62,0.00,,---,0.00,VWS V14.01,2013-03-03 07:12:00,
2013-03-03 02:18:00,40.5,28.9,29.91,West,265,0.0,0.0,63,0.00,,---,0.00,VWS V14.01,2013-03-03 07:18:00,
2013-03-03 02:23:00,40.3,29.1,29.91,West,265,0.0,0.0,64,0.00,,---,0.00,VWS V14.01,2013-03-03 07:23:00,
2013-03-03 02:28:00,40.2,29.0,29.91,West,265,0.0,0.0,64,0.00,,---,0.00,VWS V14.01,2013-03-03 07:28:00,
2013-03-03 02:30:00,39.3,29.6,29.90,West,267,0.0,0.0,68,0.00,,---,0.00,VWS V14.01,2013-03-03 07:30:00,
2013-03-03 02:33:00,40.1,29.3,29.91,West,265,0.0,0.0,65,0.00,,---,0.00,VWS V14.01,2013-03-03 07:33:00,
2013-03-03 02:38:00,39.8,30.1,29.91,West,265,0.0,0.0,68,0.00,,---,0.00,VWS V14.01,2013-03-03 07:38:00,
2013-03-03 02:43:00,39.6,29.9,29.91,West,267,0.0,0.0,68,0.00,,---,0.00,VWS V14.01,2013-03-03 07:43:00,
2013-03-03 02:48:00,39.8,29.4,29.90,West,267,0.0,0.0,66,0.00,,---,0.00,VWS V14.01,2013-03-03 07:48:00,
2013-03-03 02:53:00,39.9,29.5,29.90,West,267,0.0,0.0,66,0.00,,---,0.00,VWS V14.01,2013-03-03 07:53:00,
2013-03-03 02:58:00,39.8,30.1,29.90,West,267,0.0,0.0,68,0.00,,---,0.00,VWS V14.01,2013-03-03 07:58:00,
2013-03-03 03:00:00,38.9,29.6,29.91,NE,49,0.0,0.0,69,0.00,,---,0.00,VWS V14.01,2013-03-03 08:00:00,
2013-03-03 03:03:00,39.5,30.5,29.90,West,267,0.0,0.0,70,0.00,,---,0.00,VWS V14.01,2013-03-03 08:03:00,
2013-03-03 03:09:00,39.5,30.2,29.90,West,267,0.0,0.0,69,0.00,,---,0.00,VWS V14.01,2013-03-03 08:09:00,
2013-03-03 03:14:00,39.3,30.0,29.90,West,267,0.0,0.0,69,0.00,,---,0.00,VWS V14.01,2013-03-03 08:14:00,
2013-03-03 03:19:00,39.5,29.8,29.89,West,267,0.0,0.0,68,0.00,,---,0.00,VWS V14.01,2013-03-03 08:19:00,
2013-03-03 03:24:00,39.5,29.8,29.89,West,267,0.0,0.0,68,0.00,,---,0.00,VWS V14.01,2013-03-03 08:24:00,
2013-03-03 03:29:00,39.5,29.8,29.89,West,267,0.0,0.0,68,0.00,,---,0.00,VWS V14.01,2013-03-03 08:29:00,
2013-03-03 03:30:00,39.9,30.2,29.89,NW,308,0.0,0.0,68,0.00,,---,0.00,VWS V14.01,2013-03-03 08:30:00,
2013-03-03 03:34:00,39.3,29.6,29.90,West,267,0.0,0.0,68,0.00,,---,0.00,VWS V14.01,2013-03-03 08:34:00,
2013-03-03 03:39:00,39.2,29.9,29.90,West,267,0.0,0.0,69,0.00,,---,0.00,VWS V14.01,2013-03-03 08:39:00,
2013-03-03 03:44:00,39.1,30.5,29.90,West,267,0.0,0.0,71,0.00,,---,0.00,VWS V14.01,2013-03-03 08:44:00,
2013-03-03 03:49:00,38.8,29.9,29.91,West,267,0.0,0.0,70,0.00,,---,0.00,VWS V14.01,2013-03-03 08:49:00,
2013-03-03 03:54:00,38.6,29.7,29.91,West,267,0.0,0.0,70,0.00,,---,0.00,VWS V14.01,2013-03-03 08:54:00,
2013-03-03 03:59:00,38.8,29.9,29.91,West,267,0.0,0.0,70,0.00,,---,0.00,VWS V14.01,2013-03-03 08:59:00,
2013-03-03 04:00:00,39.2,30.2,29.91,NW,305,0.0,0.0,70,0.00,,---,0.00,VWS V14.01,2013-03-03 09:00:00,
2013-03-03 04:04:00,38.9,29.6,29.91,NE,49,0.0,0.0,69,0.00,,---,0.00,VWS V14.01,2013-03-03 09:04:00,
2013-03-03 04:09:00,39.2,29.5,29.91,North,0,0.0,0.0,68,0.00,,---,0.00,VWS V14.01,2013-03-03 09:09:00,
2013-03-03 04:14:00,39.6,30.3,29.91,West,268,0.0,0.0,69,0.00,,---,0.00,VWS V14.01,2013-03-03 09:14:00,
2013-03-03 04:19:00,39.9,30.2,29.90,West,277,0.0,0.0,68,0.00,,---,0.00,VWS V14.01,2013-03-03 09:19:00,
2013-03-03 04:24:00,39.9,30.2,29.90,West,277,0.0,0.0,68,0.00,,---,0.00,VWS V14.01,2013-03-03 09:24:00,
2013-03-03 04:29:00,39.8,30.1,29.90,West,277,0.0,0.0,68,0.00,,---,0.00,VWS V14.01,2013-03-03 09:29:00,
2013-03-03 04:30:00,39.5,30.5,29.91,NW,305,0.0,0.0,70,0.00,,---,0.00,VWS V14.01,2013-03-03 09:30:00,
2013-03-03 04:34:00,39.9,30.2,29.89,NW,305,0.0,0.0,68,0.00,,---,0.00,VWS V14.01,2013-03-03 09:34:00,
2013-03-03 04:39:00,40.2,30.1,29.89,NW,305,0.0,0.0,67,0.00,,---,0.00,VWS V14.01,2013-03-03 09:39:00,
2013-03-03 04:45:00,40.1,30.4,29.89,NW,305,0.0,0.0,68,0.00,,---,0.00,VWS V14.01,2013-03-03 09:45:00,
2013-03-03 04:50:00,39.9,30.2,29.91,NW,305,0.0,0.0,68,0.00,,---,0.00,VWS V14.01,2013-03-03 09:50:00,
2013-03-03 04:55:00,39.6,30.3,29.91,NW,305,0.0,0.0,69,0.00,,---,0.00,VWS V14.01,2013-03-03 09:55:00,
2013-03-03 05:00:00,39.3,30.0,29.91,NW,305,0.0,0.0,69,0.00,,---,0.00,VWS V14.01,2013-03-03 10:00:00,
2013-03-03 05:05:00,39.2,30.2,29.91,NW,305,0.0,0.0,70,0.00,,---,0.00,VWS V14.01,2013-03-03 10:05:00,
2013-03-03 05:10:00,38.9,30.3,29.91,NW,305,0.0,0.0,71,0.00,,---,0.00,VWS V14.01,2013-03-03 10:10:00,
2013-03-03 05:15:00,38.6,30.4,29.91,NW,305,0.0,0.0,72,0.00,,---,0.00,VWS V14.01,2013-03-03 10:15:00,
2013-03-03 05:20:00,38.6,30.4,29.92,NW,305,0.0,0.0,72,0.00,,---,0.00,VWS V14.01,2013-03-03 10:20:00,
2013-03-03 05:25:00,39.1,30.5,29.92,NW,305,0.0,0.0,71,0.00,,---,0.00,VWS V14.01,2013-03-03 10:25:00,
2013-03-03 05:30:00,39.3,30.4,29.92,NW,305,0.0,0.0,70,0.00,,---,0.00,VWS V14.01,2013-03-03 10:30:00,
2013-03-03 05:35:00,39.5,30.5,29.91,NW,305,0.0,0.0,70,0.00,,---,0.00,VWS V14.01,2013-03-03 10:35:00,
2013-03-03 05:40:00,39.5,30.9,29.91,NW,305,0.0,0.0,71,0.00,,---,0.00,VWS V14.01,2013-03-03 10:40:00,
2013-03-03 05:45:00,39.8,30.8,29.91,NW,305,0.0,0.0,70,0.00,,---,0.00,VWS V14.01,2013-03-03 10:45:00,
2013-03-03 05:50:00,39.8,30.8,29.91,NW,305,0.0,0.0,70,0.00,,---,0.00,VWS V14.01,2013-03-03 10:50:00,
2013-03-03 05:55:00,39.6,31.0,29.91,NW,305,0.0,0.0,71,0.00,,---,0.00,VWS V14.01,2013-03-03 10:55:00,
2013-03-03 06:00:00,39.5,30.9,29.91,NNE,13,0.0,0.0,71,0.00,,---,0.00,VWS V14.01,2013-03-03 11:00:00,
2013-03-03 06:05:00,39.6,31.0,29.91,NNE,13,0.0,0.0,71,0.00,,---,0.00,VWS V14.01,2013-03-03 11:05:00,
2013-03-03 06:10:00,39.6,31.0,29.91,West,275,0.0,4.0,71,0.00,,---,0.00,VWS V14.01,2013-03-03 11:10:00,
2013-03-03 06:15:00,39.3,31.0,29.91,West,275,0.0,4.0,72,0.00,,---,0.00,VWS V14.01,2013-03-03 11:15:00,
2013-03-03 06:20:00,39.1,30.9,29.92,West,277,0.0,4.0,72,0.00,,---,0.00,VWS V14.01,2013-03-03 11:20:00,
2013-03-03 06:25:00,38.8,30.9,29.92,West,277,0.0,4.0,73,0.00,,---,0.00,VWS V14.01,2013-03-03 11:25:00,
2013-03-03 06:30:00,38.6,30.7,29.92,West,277,0.0,4.0,73,0.00,,---,0.00,VWS V14.01,2013-03-03 11:30:00,
2013-03-03 06:35:00,38.5,31.0,29.92,West,277,0.0,0.0,74,0.00,,---,0.00,VWS V14.01,2013-03-03 11:35:00,
2013-03-03 06:40:00,38.5,31.0,29.92,West,277,0.0,0.0,74,0.00,,---,0.00,VWS V14.01,2013-03-03 11:40:00,
2013-03-03 06:45:00,38.5,31.0,29.92,West,277,0.0,0.0,74,0.00,,---,0.00,VWS V14.01,2013-03-03 11:45:00,
2013-03-03 06:50:00,38.5,31.0,29.92,West,277,0.0,0.0,74,0.00,,---,0.00,VWS V14.01,2013-03-03 11:50:00,
2013-03-03 06:55:00,38.6,31.0,29.92,West,277,0.0,0.0,74,0.00,,---,0.00,VWS V14.01,2013-03-03 11:55:00,
2013-03-03 07:00:00,40.8,31.1,29.95,WNW,292,0.0,1.0,68,0.00,,---,0.00,VWS V14.01,2013-03-03 12:00:00,
2013-03-03 07:01:00,38.8,31.2,29.92,West,277,0.0,0.0,74,0.00,,---,0.00,VWS V14.01,2013-03-03 12:01:00,
2013-03-03 07:06:00,39.1,31.5,29.94,WSW,253,0.0,0.0,74,0.00,,---,0.00,VWS V14.01,2013-03-03 12:06:00,
2013-03-03 07:11:00,39.2,31.6,29.94,WSW,253,0.0,0.0,74,0.00,,---,0.00,VWS V14.01,2013-03-03 12:11:00,
2013-03-03 07:16:00,39.3,31.4,29.94,WSW,253,0.0,0.0,73,0.00,,---,0.00,VWS V14.01,2013-03-03 12:16:00,
2013-03-03 07:21:00,39.5,31.2,29.94,SW,224,0.0,0.0,72,0.00,,---,0.00,VWS V14.01,2013-03-03 12:21:00,
2013-03-03 07:26:00,39.6,31.0,29.94,WNW,288,0.0,2.0,71,0.00,,---,0.00,VWS V14.01,2013-03-03 12:26:00,
2013-03-03 07:30:00,41.5,31.4,29.95,NW,315,0.0,1.0,67,0.00,,---,0.00,VWS V14.01,2013-03-03 12:30:00,
2013-03-03 07:31:00,39.9,31.3,29.94,WNW,288,0.0,2.0,71,0.00,,---,0.00,VWS V14.01,2013-03-03 12:31:00,
2013-03-03 07:36:00,40.2,31.2,29.94,WNW,288,0.0,0.0,70,0.00,,---,0.00,VWS V14.01,2013-03-03 12:36:00,
2013-03-03 07:41:00,40.3,31.7,29.94,WNW,288,0.0,0.0,71,0.00,,---,0.00,VWS V14.01,2013-03-03 12:41:00,
2013-03-03 07:46:00,40.5,31.5,29.94,NE,35,0.0,0.0,70,0.00,,---,0.00,VWS V14.01,2013-03-03 12:46:00,
2013-03-03 07:52:00,40.5,31.1,29.95,WNW,285,0.0,1.0,69,0.00,,---,0.00,VWS V14.01,2013-03-03 12:52:00,
2013-03-03 07:57:00,40.5,30.8,29.95,WNW,292,0.0,1.0,68,0.00,,---,0.00,VWS V14.01,2013-03-03 12:57:00,
2013-03-03 08:00:00,43.5,30.5,29.95,NW,315,1.0,5.0,60,0.00,,---,0.00,VWS V14.01,2013-03-03 13:00:00,
2013-03-03 08:02:00,40.8,31.1,29.95,WNW,292,0.0,1.0,68,0.00,,---,0.00,VWS V14.01,2013-03-03 13:02:00,
2013-03-03 08:07:00,40.9,31.2,29.95,WNW,292,0.0,0.0,68,0.00,,---,0.00,VWS V14.01,2013-03-03 13:07:00,
2013-03-03 08:12:00,41.1,31.4,29.95,SW,227,0.0,0.0,68,0.00,,---,0.00,VWS V14.01,2013-03-03 13:12:00,
2013-03-03 08:17:00,41.1,31.0,29.95,SE,136,0.0,1.0,67,0.00,,---,0.00,VWS V14.01,2013-03-03 13:17:00,
2013-03-03 08:22:00,41.1,31.0,29.95,NW,305,0.0,1.0,67,0.00,,---,0.00,VWS V14.01,2013-03-03 13:22:00,
2013-03-03 08:27:00,41.1,31.0,29.95,NW,316,0.0,1.0,67,0.00,,---,0.00,VWS V14.01,2013-03-03 13:27:00,
2013-03-03 08:30:00,44.8,29.6,29.95,NE,35,0.0,10.0,55,0.00,,---,0.00,VWS V14.01,2013-03-03 13:30:00,
2013-03-03 08:32:00,41.3,31.2,29.95,NW,315,0.0,1.0,67,0.00,,---,0.00,VWS V14.01,2013-03-03 13:32:00,
2013-03-03 08:37:00,41.6,31.1,29.95,North,6,0.0,0.0,66,0.00,,---,0.00,VWS V14.01,2013-03-03 13:37:00,
2013-03-03 08:42:00,42.1,31.2,29.95,WNW,298,0.0,0.0,65,0.00,,---,0.00,VWS V14.01,2013-03-03 13:42:00,
2013-03-03 08:47:00,42.5,31.2,29.95,NW,312,0.0,2.0,64,0.00,,---,0.00,VWS V14.01,2013-03-03 13:47:00,
2013-03-03 08:52:00,42.8,31.1,29.94,ENE,71,0.0,2.0,63,0.00,,---,0.00,VWS V14.01,2013-03-03 13:52:00,
2013-03-03 08:58:00,43.2,31.1,29.94,NNE,14,0.0,2.0,62,0.00,,---,0.00,VWS V14.01,2013-03-03 13:58:00,
2013-03-03 09:00:00,45.8,29.7,29.96,WNW,289,0.0,6.0,53,0.00,,---,0.00,VWS V14.01,2013-03-03 14:00:00,
2013-03-03 09:02:00,43.5,30.5,29.94,NW,318,0.0,3.0,60,0.00,,---,0.00,VWS V14.01,2013-03-03 14:02:00,
2013-03-03 09:08:00,43.6,30.6,29.95,NW,325,0.0,1.0,60,0.00,,---,0.00,VWS V14.01,2013-03-03 14:08:00,
2013-03-03 09:13:00,43.5,28.9,29.95,North,10,0.0,10.0,56,0.00,,---,0.00,VWS V14.01,2013-03-03 14:13:00,
2013-03-03 09:18:00,43.6,29.4,29.95,WNW,282,5.0,10.0,57,0.00,,---,0.00,VWS V14.01,2013-03-03 14:18:00,
2013-03-03 09:23:00,43.9,29.7,29.95,NW,308,0.0,10.0,57,0.00,,---,0.00,VWS V14.01,2013-03-03 14:23:00,
2013-03-03 09:28:00,44.1,30.3,29.95,SSW,196,0.0,10.0,58,0.00,,---,0.00,VWS V14.01,2013-03-03 14:28:00,
2013-03-03 09:30:00,46.2,30.0,29.96,West,265,0.0,10.0,53,0.00,,---,0.00,VWS V14.01,2013-03-03 14:30:00,
2013-03-03 09:33:00,44.8,30.5,29.95,NE,35,1.0,10.0,57,0.00,,---,0.00,VWS V14.01,2013-03-03 14:33:00,
2013-03-03 09:38:00,44.8,29.6,29.95,North,6,0.0,2.0,55,0.00,,---,0.00,VWS V14.01,2013-03-03 14:38:00,
2013-03-03 09:43:00,45.1,29.9,29.95,NW,308,0.0,6.0,55,0.00,,---,0.00,VWS V14.01,2013-03-03 14:43:00,
2013-03-03 09:48:00,45.2,30.0,29.96,NW,305,0.0,6.0,55,0.00,,---,0.00,VWS V14.01,2013-03-03 14:48:00,
2013-03-03 09:53:00,45.5,30.3,29.96,West,268,0.0,6.0,55,0.00,,---,0.00,VWS V14.01,2013-03-03 14:53:00,
2013-03-03 09:58:00,45.8,29.2,29.96,NW,305,0.0,6.0,52,0.00,,---,0.00,VWS V14.01,2013-03-03 14:58:00,
2013-03-03 10:00:00,47.6,30.4,29.95,North,359,0.0,14.0,51,0.00,,---,0.00,VWS V14.01,2013-03-03 15:00:00,
2013-03-03 10:03:00,45.8,29.7,29.96,WSW,246,0.0,6.0,53,0.00,,---,0.00,VWS V14.01,2013-03-03 15:03:00,
2013-03-03 10:08:00,45.5,29.4,29.96,NW,318,0.0,5.0,53,0.00,,---,0.00,VWS V14.01,2013-03-03 15:08:00,
2013-03-03 10:13:00,45.7,29.6,29.96,East,82,0.0,5.0,53,0.00,,---,0.00,VWS V14.01,2013-03-03 15:13:00,
2013-03-03 10:18:00,46.0,29.4,29.96,NNW,343,1.0,5.0,52,0.00,,---,0.00,VWS V14.01,2013-03-03 15:18:00,
2013-03-03 10:24:00,46.1,29.5,29.96,WNW,282,0.0,10.0,52,0.00,,---,0.00,VWS V14.01,2013-03-03 15:24:00,
2013-03-03 10:29:00,46.0,29.4,29.96,WNW,301,0.0,10.0,52,0.00,,---,0.00,VWS V14.01,2013-03-03 15:29:00,
2013-03-03 10:30:00,48.5,30.2,29.95,North,349,0.0,6.0,49,0.00,,---,0.00,VWS V14.01,2013-03-03 15:30:00,
2013-03-03 10:34:00,46.2,30.0,29.96,West,265,0.0,0.0,53,0.00,,---,0.00,VWS V14.01,2013-03-03 15:34:00,
2013-03-03 10:39:00,46.4,29.8,29.96,SW,229,0.0,3.0,52,0.00,,---,0.00,VWS V14.01,2013-03-03 15:39:00,
2013-03-03 10:44:00,46.7,29.1,29.96,South,169,0.0,3.0,50,0.00,,---,0.00,VWS V14.01,2013-03-03 15:44:00,
2013-03-03 10:49:00,47.0,29.8,29.96,WNW,296,0.0,14.0,51,0.00,,---,0.00,VWS V14.01,2013-03-03 15:49:00,
2013-03-03 10:54:00,47.1,30.9,29.96,North,359,0.0,14.0,53,0.00,,---,0.00,VWS V14.01,2013-03-03 15:54:00,
2013-03-03 10:59:00,47.0,29.3,29.96,North,357,0.0,14.0,50,0.00,,---,0.00,VWS V14.01,2013-03-03 15:59:00,
2013-03-03 11:00:00,47.9,29.7,29.95,West,274,6.0,8.0,49,0.00,,---,0.00,VWS V14.01,2013-03-03 16:00:00,
2013-03-03 11:04:00,47.6,29.9,29.95,NNW,342,0.0,0.0,50,0.00,,---,0.00,VWS V14.01,2013-03-03 16:04:00,
2013-03-03 11:09:00,47.9,29.7,29.95,WNW,287,0.0,6.0,49,0.00,,---,0.00,VWS V14.01,2013-03-03 16:09:00,
2013-03-03 11:14:00,48.0,30.3,29.95,NW,313,0.0,6.0,50,0.00,,---,0.00,VWS V14.01,2013-03-03 16:14:00,
2013-03-03 11:19:00,48.3,29.5,29.95,NW,313,5.0,6.0,48,0.00,,---,0.00,VWS V14.01,2013-03-03 16:19:00,
2013-03-03 11:24:00,47.9,29.7,29.95,NW,308,2.0,6.0,49,0.00,,---,0.00,VWS V14.01,2013-03-03 16:24:00,
2013-03-03 11:29:00,47.9,30.2,29.95,East,83,0.0,6.0,50,0.00,,---,0.00,VWS V14.01,2013-03-03 16:29:00,
2013-03-03 11:30:00,48.2,30.0,29.94,NNW,343,0.0,10.0,49,0.00,,---,0.00,VWS V14.01,2013-03-03 16:30:00,
2013-03-03 11:34:00,48.5,30.2,29.95,WNW,301,0.0,0.0,49,0.00,,---,0.00,VWS V14.01,2013-03-03 16:34:00,
2013-03-03 11:39:00,48.8,30.0,29.95,West,275,2.0,6.0,48,0.00,,---,0.00,VWS V14.01,2013-03-03 16:39:00,
2013-03-03 11:44:00,48.8,30.0,29.95,NW,319,0.0,6.0,48,0.00,,---,0.00,VWS V14.01,2013-03-03 16:44:00,
2013-03-03 11:50:00,48.6,30.3,29.95,SE,138,0.0,6.0,49,0.00,,---,0.00,VWS V14.01,2013-03-03 16:50:00,
2013-03-03 11:55:00,48.2,30.0,29.95,WNW,288,0.0,6.0,49,0.00,,---,0.00,VWS V14.01,2013-03-03 16:55:00,
2013-03-03 12:00:00,47.9,29.7,29.95,NNW,328,0.0,6.0,49,0.00,,---,0.00,VWS V14.01,2013-03-03 17:00:00,
2013-03-03 12:05:00,47.9,30.2,29.95,West,263,0.0,6.0,50,0.00,,---,0.00,VWS V14.01,2013-03-03 17:05:00,
2013-03-03 12:10:00,49.4,29.5,29.95,WNW,298,0.0,8.0,46,0.00,,---,0.00,VWS V14.01,2013-03-03 17:10:00,
2013-03-03 12:15:00,49.8,29.9,29.95,NW,304,0.0,10.0,46,0.00,,---,0.00,VWS V14.01,2013-03-03 17:15:00,
2013-03-03 12:20:00,49.4,29.5,29.94,NW,305,0.0,10.0,46,0.00,,---,0.00,VWS V14.01,2013-03-03 17:20:00,
2013-03-03 12:25:00,48.6,29.3,29.94,NW,323,0.0,10.0,47,0.00,,---,0.00,VWS V14.01,2013-03-03 17:25:00,
2013-03-03 12:30:00,48.3,29.0,29.94,NW,318,0.0,10.0,47,0.00,,---,0.00,VWS V14.01,2013-03-03 17:30:00,
2013-03-03 12:35:00,48.2,29.5,29.94,SW,234,0.0,4.0,48,0.00,,---,0.00,VWS V14.01,2013-03-03 17:35:00,
2013-03-03 12:40:00,48.3,30.5,29.94,West,281,0.0,6.0,50,0.00,,---,0.00,VWS V14.01,2013-03-03 17:40:00,
2013-03-03 12:45:00,48.8,30.5,29.94,WSW,239,7.0,7.0,49,0.00,,---,0.00,VWS V14.01,2013-03-03 17:45:00,
2013-03-03 12:50:00,49.1,29.8,29.93,West,265,0.0,7.0,47,0.00,,---,0.00,VWS V14.01,2013-03-03 17:50:00,
2013-03-03 12:55:00,49.2,29.9,29.93,North,0,0.0,7.0,47,0.00,,---,0.00,VWS V14.01,2013-03-03 17:55:00,
2013-03-03 13:00:00,49.8,30.9,29.93,WNW,295,0.0,7.0,48,0.00,,---,0.00,VWS V14.01,2013-03-03 18:00:00,
2013-03-03 13:06:00,49.9,30.5,29.92,West,275,0.0,0.0,47,0.00,,---,0.00,VWS V14.01,2013-03-03 18:06:00,
2013-03-03 13:11:00,50.5,31.0,29.92,SSW,195,0.0,3.0,47,0.00,,---,0.00,VWS V14.01,2013-03-03 18:11:00,
2013-03-03 13:16:00,51.0,30.4,29.92,SW,236,1.0,5.0,45,0.00,,---,0.00,VWS V14.01,2013-03-03 18:16:00,
2013-03-03 13:21:00,51.1,31.1,29.91,WSW,246,1.0,11.0,46,0.00,,---,0.00,VWS V14.01,2013-03-03 18:21:00,
2013-03-03 13:26:00,51.7,30.5,29.91,WSW,254,0.0,11.0,44,0.00,,---,0.00,VWS V14.01,2013-03-03 18:26:00,
2013-03-03 13:30:00,49.5,30.6,29.90,SSE,150,0.0,8.0,48,0.00,,---,0.00,VWS V14.01,2013-03-03 18:30:00,
2013-03-03 13:31:00,51.1,30.5,29.91,WSW,256,0.0,11.0,45,0.00,,---,0.00,VWS V14.01,2013-03-03 18:31:00,
2013-03-03 13:36:00,50.8,30.8,29.91,SSW,202,0.0,0.0,46,0.00,,---,0.00,VWS V14.01,2013-03-03 18:36:00,
2013-03-03 13:41:00,51.0,31.5,29.91,WNW,288,0.0,6.0,47,0.00,,---,0.00,VWS V14.01,2013-03-03 18:41:00,
2013-03-03 13:46:00,51.0,30.4,29.91,SSW,199,2.0,9.0,45,0.00,,---,0.00,VWS V14.01,2013-03-03 18:46:00,
2013-03-03 13:51:00,50.5,31.0,29.91,North,0,0.0,9.0,47,0.00,,---,0.00,VWS V14.01,2013-03-03 18:51:00,
2013-03-03 13:56:00,50.8,30.8,29.91,WSW,246,0.0,11.0,46,0.00,,---,0.00,VWS V14.01,2013-03-03 18:56:00,
2013-03-03 14:00:00,49.9,30.5,29.90,ENE,71,0.0,14.0,47,0.00,,---,0.00,VWS V14.01,2013-03-03 19:00:00,
2013-03-03 14:01:00,51.3,31.2,29.91,NW,311,5.0,11.0,46,0.00,,---,0.00,VWS V14.01,2013-03-03 19:01:00,
2013-03-03 14:06:00,50.1,30.7,29.90,West,267,2.0,8.0,47,0.00,,---,0.00,VWS V14.01,2013-03-03 19:06:00,
2013-03-03 14:11:00,49.8,30.9,29.90,NW,316,0.0,8.0,48,0.00,,---,0.00,VWS V14.01,2013-03-03 19:11:00,
2013-03-03 14:16:00,49.4,30.5,29.90,North,357,0.0,8.0,48,0.00,,---,0.00,VWS V14.01,2013-03-03 19:16:00,
2013-03-03 14:22:00,49.6,30.7,29.91,SSE,151,0.0,8.0,48,0.00,,---,0.00,VWS V14.01,2013-03-03 19:22:00,
2013-03-03 14:27:00,49.9,31.0,29.91,NW,309,0.0,8.0,48,0.00,,---,0.00,VWS V14.01,2013-03-03 19:27:00,
2013-03-03 14:30:00,50.7,31.2,29.91,WNW,285,4.0,16.0,47,0.00,,---,0.00,VWS V14.01,2013-03-03 19:30:00,
2013-03-03 14:32:00,49.5,30.1,29.91,SSW,208,0.0,8.0,47,0.00,,---,0.00,VWS V14.01,2013-03-03 19:32:00,
2013-03-03 14:37:00,49.9,31.0,29.90,NW,304,0.0,1.0,48,0.00,,---,0.00,VWS V14.01,2013-03-03 19:37:00,
2013-03-03 14:42:00,49.9,30.5,29.90,WSW,256,0.0,3.0,47,0.00,,---,0.00,VWS V14.01,2013-03-03 19:42:00,
2013-03-03 14:47:00,50.1,30.7,29.90,NW,306,0.0,14.0,47,0.00,,---,0.00,VWS V14.01,2013-03-03 19:47:00,
2013-03-03 14:52:00,49.8,30.4,29.90,NW,318,4.0,14.0,47,0.00,,---,0.00,VWS V14.01,2013-03-03 19:52:00,
2013-03-03 14:57:00,49.5,31.6,29.90,SW,224,0.0,14.0,50,0.00,,---,0.00,VWS V14.01,2013-03-03 19:57:00,
2013-03-03 15:00:00,50.1,31.7,29.91,WSW,256,0.0,12.0,49,0.00,,---,0.00,VWS V14.01,2013-03-03 20:00:00,
2013-03-03 15:02:00,49.8,30.4,29.90,NW,318,0.0,14.0,47,0.00,,---,0.00,VWS V14.01,2013-03-03 20:02:00,
2013-03-03 15:07:00,50.2,30.8,29.90,NE,49,0.0,5.0,47,0.00,,---,0.00,VWS V14.01,2013-03-03 20:07:00,
2013-03-03 15:12:00,50.2,30.8,29.90,NW,305,0.0,6.0,47,0.00,,---,0.00,VWS V14.01,2013-03-03 20:12:00,
2013-03-03 15:17:00,50.2,30.8,29.90,NW,306,0.0,6.0,47,0.00,,---,0.00,VWS V14.01,2013-03-03 20:17:00,
2013-03-03 15:22:00,50.7,30.7,29.91,NNW,332,0.0,6.0,46,0.00,,---,0.00,VWS V14.01,2013-03-03 20:22:00,
2013-03-03 15:27:00,50.5,30.5,29.91,WNW,302,0.0,12.0,46,0.00,,---,0.00,VWS V14.01,2013-03-03 20:27:00,
2013-03-03 15:30:00,49.2,31.4,29.91,SSE,167,2.0,11.0,50,0.00,,---,0.00,VWS V14.01,2013-03-03 20:30:00,
2013-03-03 15:32:00,50.4,30.4,29.91,SE,137,0.0,16.0,46,0.00,,---,0.00,VWS V14.01,2013-03-03 20:32:00,
2013-03-03 15:37:00,51.6,32.0,29.91,West,281,0.0,12.0,47,0.00,,---,0.00,VWS V14.01,2013-03-03 20:37:00,
2013-03-03 15:42:00,51.6,31.5,29.91,North,7,0.0,12.0,46,0.00,,---,0.00,VWS V14.01,2013-03-03 20:42:00,
2013-03-03 15:47:00,50.2,31.3,29.91,South,181,0.0,12.0,48,0.00,,---,0.00,VWS V14.01,2013-03-03 20:47:00,
2013-03-03 15:52:00,49.5,31.1,29.91,WSW,248,0.0,12.0,49,0.00,,---,0.00,VWS V14.01,2013-03-03 20:52:00,
2013-03-03 15:57:00,50.1,30.7,29.91,SSW,206,0.0,12.0,47,0.00,,---,0.00,VWS V14.01,2013-03-03 20:57:00,
2013-03-03 16:00:00,48.0,31.2,29.91,West,260,6.0,11.0,52,0.00,,---,0.00,VWS V14.01,2013-03-03 21:00:00,
2013-03-03 16:03:00,50.1,31.2,29.91,WSW,251,0.0,12.0,48,0.00,,---,0.00,VWS V14.01,2013-03-03 21:03:00,
2013-03-03 16:08:00,50.8,31.3,29.91,West,274,0.0,11.0,47,0.00,,---,0.00,VWS V14.01,2013-03-03 21:08:00,
2013-03-03 16:13:00,51.1,31.6,29.91,SW,222,0.0,11.0,47,0.00,,---,0.00,VWS V14.01,2013-03-03 21:13:00,
2013-03-03 16:18:00,50.7,31.2,29.91,WNW,285,0.0,11.0,47,0.00,,---,0.00,VWS V14.01,2013-03-03 21:18:00,
2013-03-03 16:23:00,49.9,31.0,29.91,WSW,240,0.0,11.0,48,0.00,,---,0.00,VWS V14.01,2013-03-03 21:23:00,
2013-03-03 16:28:00,49.5,31.6,29.91,WNW,299,0.0,11.0,50,0.00,,---,0.00,VWS V14.01,2013-03-03 21:28:00,
2013-03-03 16:30:00,48.9,31.1,29.92,West,277,0.0,10.0,50,0.00,,---,0.00,VWS V14.01,2013-03-03 21:30:00,
2013-03-03 16:33:00,49.2,31.4,29.91,West,275,0.0,11.0,50,0.00,,---,0.00,VWS V14.01,2013-03-03 21:33:00,
2013-03-03 16:38:00,48.9,31.6,29.91,West,267,11.0,11.0,51,0.00,,---,0.00,VWS V14.01,2013-03-03 21:38:00,
2013-03-03 16:43:00,48.6,31.3,29.91,NNW,337,0.0,11.0,51,0.00,,---,0.00,VWS V14.01,2013-03-03 21:43:00,
2013-03-03 16:48:00,48.5,32.2,29.91,SSW,193,0.0,11.0,53,0.00,,---,0.00,VWS V14.01,2013-03-03 21:48:00,
2013-03-03 16:54:00,48.3,32.4,29.91,SW,215,0.0,11.0,54,0.00,,---,0.00,VWS V14.01,2013-03-03 21:54:00,
2013-03-03 16:59:00,48.3,32.0,29.91,SW,222,0.0,11.0,53,0.00,,---,0.00,VWS V14.01,2013-03-03 21:59:00,
2013-03-03 17:00:00,46.4,31.1,29.93,West,268,0.0,2.0,55,0.00,,---,0.00,VWS V14.01,2013-03-03 22:00:00,
2013-03-03 17:04:00,48.0,31.2,29.91,WSW,256,6.0,6.0,52,0.00,,---,0.00,VWS V14.01,2013-03-03 22:04:00,
2013-03-03 17:09:00,47.9,31.1,29.91,WSW,253,0.0,10.0,52,0.00,,---,0.00,VWS V14.01,2013-03-03 22:09:00,
2013-03-03 17:14:00,48.2,31.4,29.91,WSW,247,0.0,10.0,52,0.00,,---,0.00,VWS V14.01,2013-03-03 22:14:00,
2013-03-03 17:19:00,48.9,31.1,29.91,South,174,0.0,10.0,50,0.00,,---,0.00,VWS V14.01,2013-03-03 22:19:00,
2013-03-03 17:24:00,49.1,31.3,29.91,WSW,243,0.0,10.0,50,0.00,,---,0.00,VWS V14.01,2013-03-03 22:24:00,
2013-03-03 17:29:00,49.1,31.8,29.91,NW,308,0.0,10.0,51,0.00,,---,0.00,VWS V14.01,2013-03-03 22:29:00,
2013-03-03 17:30:00,45.2,30.5,29.94,SW,236,0.0,6.0,56,0.00,,---,0.00,VWS V14.01,2013-03-03 22:30:00,
2013-03-03 17:34:00,48.9,31.1,29.92,West,277,0.0,0.0,50,0.00,,---,0.00,VWS V14.01,2013-03-03 22:34:00,
2013-03-03 17:39:00,48.9,31.1,29.92,West,278,0.0,0.0,50,0.00,,---,0.00,VWS V14.01,2013-03-03 22:39:00,
2013-03-03 17:44:00,47.4,30.7,29.92,WNW,298,0.0,2.0,52,0.00,,---,0.00,VWS V14.01,2013-03-03 22:44:00,
2013-03-03 17:49:00,47.1,31.3,29.92,West,264,0.0,2.0,54,0.00,,---,0.00,VWS V14.01,2013-03-03 22:49:00,
2013-03-03 17:54:00,46.8,31.0,29.92,SW,216,0.0,2.0,54,0.00,,---,0.00,VWS V14.01,2013-03-03 22:54:00,
2013-03-03 17:59:00,46.5,30.8,29.92,SSE,162,0.0,2.0,54,0.00,,---,0.00,VWS V14.01,2013-03-03 22:59:00,
2013-03-03 18:00:00,43.6,30.6,29.97,SSW,202,0.0,0.0,60,0.00,,---,0.00,VWS V14.01,2013-03-03 23:00:00,
2013-03-03 18:04:00,46.4,31.1,29.93,WSW,240,0.0,0.0,55,0.00,,---,0.00,VWS V14.01,2013-03-03 23:04:00,
2013-03-03 18:09:00,46.4,30.7,29.93,West,267,0.0,3.0,54,0.00,,---,0.00,VWS V14.01,2013-03-03 23:09:00,
2013-03-03 18:14:00,46.1,30.9,29.93,West,281,0.0,6.0,55,0.00,,---,0.00,VWS V14.01,2013-03-03 23:14:00,
2013-03-03 18:20:00,46.0,30.8,29.94,SW,236,0.0,6.0,55,0.00,,---,0.00,VWS V14.01,2013-03-03 23:20:00,
2013-03-03 18:25:00,46.0,30.8,29.94,SW,236,0.0,6.0,55,0.00,,---,0.00,VWS V14.01,2013-03-03 23:25:00,
2013-03-03 18:30:00,45.4,30.6,29.94,SW,236,0.0,6.0,56,0.00,,---,0.00,VWS V14.01,2013-03-03 23:30:00,
2013-03-03 18:35:00,45.1,30.8,29.94,SW,236,0.0,0.0,57,0.00,,---,0.00,VWS V14.01,2013-03-03 23:35:00,
2013-03-03 18:40:00,44.9,30.6,29.94,SW,236,0.0,0.0,57,0.00,,---,0.00,VWS V14.01,2013-03-03 23:40:00,
2013-03-03 18:45:00,44.9,30.6,29.94,SW,236,0.0,0.0,57,0.00,,---,0.00,VWS V14.01,2013-03-03 23:45:00,
2013-03-03 18:50:00,44.5,31.1,29.96,West,267,0.0,0.0,59,0.00,,---,0.00,VWS V14.01,2013-03-03 23:50:00,
2013-03-03 18:55:00,44.3,30.9,29.96,SW,217,0.0,0.0,59,0.00,,---,0.00,VWS V14.01,2013-03-03 23:55:00,
2013-03-03 19:00:00,43.8,30.4,29.96,SSW,199,0.0,0.0,59,0.00,,---,0.00,VWS V14.01,2013-03-04 00:00:00,
2013-03-03 19:05:00,43.6,30.6,29.97,SSW,202,0.0,0.0,60,0.00,,---,0.00,VWS V14.01,2013-03-04 00:05:00,
2013-03-03 19:10:00,43.3,30.4,29.97,SSW,203,0.0,0.0,60,0.00,,---,0.00,VWS V14.01,2013-03-04 00:10:00,
2013-03-03 19:15:00,43.1,31.0,29.97,SW,227,0.0,0.0,62,0.00,,---,0.00,VWS V14.01,2013-03-04 00:15:00,
2013-03-03 19:20:00,42.8,30.7,29.98,SW,227,0.0,0.0,62,0.00,,---,0.00,VWS V14.01,2013-03-04 00:20:00,
2013-03-03 19:25:00,42.6,31.3,29.98,SW,227,0.0,0.0,64,0.00,,---,0.00,VWS V14.01,2013-03-04 00:25:00,
2013-03-03 19:30:00,42.3,31.0,29.98,SW,227,0.0,0.0,64,0.00,,---,0.00,VWS V14.01,2013-03-04 00:30:00,
2013-03-03 19:35:00,42.1,31.2,29.98,SW,227,0.0,0.0,65,0.00,,---,0.00,VWS V14.01,2013-03-04 00:35:00,
2013-03-03 19:40:00,41.8,31.3,29.98,SW,227,0.0,0.0,66,0.00,,---,0.00,VWS V14.01,2013-03-04 00:40:00,
2013-03-03 19:46:00,41.5,31.7,29.98,SW,227,0.0,0.0,68,0.00,,---,0.00,VWS V14.01,2013-03-04 00:46:00,
2013-03-03 19:51:00,41.2,32.2,29.98,SW,227,0.0,0.0,70,0.00,,---,0.00,VWS V14.01,2013-03-04 00:51:00,
2013-03-03 19:56:00,40.9,32.2,29.98,SW,227,0.0,0.0,71,0.00,,---,0.00,VWS V14.01,2013-03-04 00:56:00,
2013-03-03 20:00:00,38.8,31.6,30.01,SW,234,0.0,0.0,75,0.00,,---,0.00,VWS V14.01,2013-03-04 01:00:00,
2013-03-03 20:01:00,40.6,32.0,29.98,SW,234,0.0,0.0,71,0.00,,---,0.00,VWS V14.01,2013-03-04 01:01:00,
2013-03-03 20:06:00,40.2,31.9,29.99,SW,234,0.0,0.0,72,0.00,,---,0.00,VWS V14.01,2013-03-04 01:06:00,
2013-03-03 20:11:00,39.9,31.6,29.99,SW,234,0.0,0.0,72,0.00,,---,0.00,VWS V14.01,2013-03-04 01:11:00,
2013-03-03 20:16:00,39.6,31.7,29.99,SW,234,0.0,0.0,73,0.00,,---,0.00,VWS V14.01,2013-03-04 01:16:00,
2013-03-03 20:21:00,39.5,31.6,30.00,SW,234,0.0,0.0,73,0.00,,---,0.00,VWS V14.01,2013-03-04 01:21:00,
2013-03-03 20:26:00,39.3,31.0,30.00,SW,234,0.0,0.0,72,0.00,,---,0.00,VWS V14.01,2013-03-04 01:26:00,
2013-03-03 20:30:00,38.0,31.4,30.03,SW,234,0.0,0.0,77,0.00,,---,0.00,VWS V14.01,2013-03-04 01:30:00,
2013-03-03 20:31:00,39.3,31.0,30.00,SW,234,0.0,0.0,72,0.00,,---,0.00,VWS V14.01,2013-03-04 01:31:00,
2013-03-03 20:36:00,39.2,31.0,30.00,SW,234,0.0,0.0,72,0.00,,---,0.00,VWS V14.01,2013-03-04 01:36:00,
2013-03-03 20:41:00,39.1,31.2,30.00,SW,234,0.0,0.0,73,0.00,,---,0.00,VWS V14.01,2013-03-04 01:41:00,
2013-03-03 20:46:00,39.1,31.5,30.00,SW,234,0.0,0.0,74,0.00,,---,0.00,VWS V14.01,2013-03-04 01:46:00,
2013-03-03 20:51:00,38.9,31.7,30.01,SW,234,0.0,0.0,75,0.00,,---,0.00,VWS V14.01,2013-03-04 01:51:00,
2013-03-03 20:57:00,38.9,31.7,30.01,SW,234,0.0,0.0,75,0.00,,---,0.00,VWS V14.01,2013-03-04 01:57:00,
2013-03-03 21:00:00,37.5,31.0,30.04,SW,234,0.0,0.0,77,0.00,,---,0.00,VWS V14.01,2013-03-04 02:00:00,
2013-03-03 21:02:00,38.8,31.9,30.01,SW,234,0.0,0.0,76,0.00,,---,0.00,VWS V14.01,2013-03-04 02:02:00,
2013-03-03 21:07:00,38.6,31.7,30.01,SW,234,0.0,0.0,76,0.00,,---,0.00,VWS V14.01,2013-03-04 02:07:00,
2013-03-03 21:12:00,38.5,31.6,30.01,SW,234,0.0,0.0,76,0.00,,---,0.00,VWS V14.01,2013-03-04 02:12:00,
2013-03-03 21:17:00,38.3,31.7,30.01,SW,234,0.0,0.0,77,0.00,,---,0.00,VWS V14.01,2013-03-04 02:17:00,
2013-03-03 21:22:00,38.2,31.6,30.02,SW,234,0.0,0.0,77,0.00,,---,0.00,VWS V14.01,2013-03-04 02:22:00,
2013-03-03 21:27:00,38.0,31.4,30.02,SW,234,0.0,0.0,77,0.00,,---,0.00,VWS V14.01,2013-03-04 02:27:00,
2013-03-03 21:30:00,36.2,30.6,30.05,SW,234,0.0,0.0,80,0.00,,---,0.00,VWS V14.01,2013-03-04 02:30:00,
2013-03-03 21:32:00,38.0,31.8,30.02,SW,234,0.0,0.0,78,0.00,,---,0.00,VWS V14.01,2013-03-04 02:32:00,
2013-03-03 21:37:00,38.0,31.4,30.03,SW,234,0.0,0.0,77,0.00,,---,0.00,VWS V14.01,2013-03-04 02:37:00,
2013-03-03 21:42:00,38.0,31.4,30.03,SW,234,0.0,0.0,77,0.00,,---,0.00,VWS V14.01,2013-03-04 02:42:00,
2013-03-03 21:47:00,37.9,31.4,30.03,SW,234,0.0,0.0,77,0.00,,---,0.00,VWS V14.01,2013-03-04 02:47:00,
2013-03-03 21:52:00,37.8,31.2,30.03,SW,234,0.0,0.0,77,0.00,,---,0.00,VWS V14.01,2013-03-04 02:52:00,
2013-03-03 21:57:00,37.8,31.2,30.03,SW,234,0.0,0.0,77,0.00,,---,0.00,VWS V14.01,2013-03-04 02:57:00,
2013-03-03 22:00:00,34.7,30.1,30.05,SW,234,0.0,0.0,83,0.00,,---,0.00,VWS V14.01,2013-03-04 03:00:00,
2013-03-03 22:02:00,37.6,31.1,30.03,SW,234,0.0,0.0,77,0.00,,---,0.00,VWS V14.01,2013-03-04 03:02:00,
2013-03-03 22:07:00,37.5,31.3,30.04,SW,234,0.0,0.0,78,0.00,,---,0.00,VWS V14.01,2013-03-04 03:07:00,
2013-03-03 22:12:00,37.3,31.4,30.04,SW,234,0.0,0.0,79,0.00,,---,0.00,VWS V14.01,2013-03-04 03:12:00,
2013-03-03 22:18:00,37.0,31.4,30.04,SW,234,0.0,0.0,80,0.00,,---,0.00,VWS V14.01,2013-03-04 03:18:00,
2013-03-03 22:23:00,36.9,31.3,30.05,SW,234,0.0,0.0,80,0.00,,---,0.00,VWS V14.01,2013-03-04 03:23:00,
2013-03-03 22:28:00,36.6,31.0,30.05,SW,234,0.0,0.0,80,0.00,,---,0.00,VWS V14.01,2013-03-04 03:28:00,
2013-03-03 22:30:00,33.2,29.2,30.05,SW,234,0.0,0.0,85,0.00,,---,0.00,VWS V14.01,2013-03-04 03:30:00,
2013-03-03 22:33:00,36.2,30.6,30.05,SW,234,0.0,0.0,80,0.00,,---,0.00,VWS V14.01,2013-03-04 03:33:00,
2013-03-03 22:38:00,36.0,30.4,30.05,SW,234,0.0,0.0,80,0.00,,---,0.00,VWS V14.01,2013-03-04 03:38:00,
2013-03-03 22:43:00,35.8,30.5,30.05,SW,234,0.0,0.0,81,0.00,,---,0.00,VWS V14.01,2013-03-04 03:43:00,
2013-03-03 22:48:00,35.5,30.3,30.05,SW,234,0.0,0.0,81,0.00,,---,0.00,VWS V14.01,2013-03-04 03:48:00,
2013-03-03 22:53:00,35.3,30.4,30.05,SW,234,0.0,0.0,82,0.00,,---,0.00,VWS V14.01,2013-03-04 03:53:00,
2013-03-03 22:58:00,35.0,30.1,30.05,SW,234,0.0,0.0,82,0.00,,---,0.00,VWS V14.01,2013-03-04 03:58:00,
2013-03-03 23:00:00,32.5,28.8,30.05,SW,234,0.0,0.0,86,0.00,,---,0.00,VWS V14.01,2013-03-04 04:00:00,
2013-03-03 23:03:00,34.7,30.1,30.05,SW,234,0.0,0.0,83,0.00,,---,0.00,VWS V14.01,2013-03-04 04:03:00,
2013-03-03 23:08:00,34.6,30.0,30.05,SW,234,0.0,0.0,83,0.00,,---,0.00,VWS V14.01,2013-03-04 04:08:00,
2013-03-03 23:13:00,34.3,29.7,30.05,SW,234,0.0,0.0,83,0.00,,---,0.00,VWS V14.01,2013-03-04 04:13:00,
2013-03-03 23:18:00,34.0,29.7,30.04,SW,234,0.0,0.0,84,0.00,,---,0.00,VWS V14.01,2013-03-04 04:18:00,
2013-03-03 23:23:00,33.5,29.2,30.04,SW,234,0.0,0.0,84,0.00,,---,0.00,VWS V14.01,2013-03-04 04:23:00,
2013-03-03 23:28:00,33.4,29.1,30.04,SW,234,0.0,0.0,84,0.00,,---,0.00,VWS V14.01,2013-03-04 04:28:00,
2013-03-03 23:30:00,32.2,28.8,30.05,SW,234,0.0,0.0,87,0.00,,---,0.00,VWS V14.01,2013-03-04 04:30:00,
2013-03-03 23:34:00,33.2,29.2,30.05,SW,234,0.0,0.0,85,0.00,,---,0.00,VWS V14.01,2013-03-04 04:34:00,
2013-03-03 23:39:00,33.1,29.1,30.05,SW,234,0.0,0.0,85,0.00,,---,0.00,VWS V14.01,2013-03-04 04:39:00,
2013-03-03 23:44:00,32.9,28.9,30.05,SW,234,0.0,0.0,85,0.00,,---,0.00,VWS V14.01,2013-03-04 04:44:00,
2013-03-03 23:49:00,32.8,29.1,30.05,SW,234,0.0,0.0,86,0.00,,---,0.00,VWS V14.01,2013-03-04 04:49:00,
2013-03-03 23:54:00,32.7,29.0,30.05,SW,234,0.0,0.0,86,0.00,,---,0.00,VWS V14.01,2013-03-04 04:54:00,
2013-03-03 23:59:00,32.5,28.8,30.05,SW,234,0.0,0.0,86,0.00,,---,0.00,VWS V14.01,2013-03-04 04:59:00,